マジュロ の空港の天気 - METARとTAF

マジュロ国際空港 ( PKMJ / MAJ ) - マーシャル諸島 マジュロ
飛行場実況気象(Metar)
観測時間-
風向・風速- -
視程-
天気現象-
-
気温-
湿度-
気圧-
METAR-
過去の天気等 Google飛行場航空写真 Wunderground天気予報

過去48時間のMETAR

飛行場予報(TAF)
発表時間: 9/19 05:29 MHT (9/18 17:29 UTC)
予報対象時間: 19日6時 MHT ~ 20日6時 MHT
風向・風速東 4m/s
視程10km以上
少しの雲 雲底高度 460m
19日14時 MHT から
風向・風速東 4m/s
視程10km以上
天気現象周辺でしゅう雨
全天の4割程度の雲 雲底高度 460m
PKMJ 181729Z 1818/1918 09008KT P6SM FEW015
FM190200 09008KT P6SM VCSH SCT015